sensor_id;sensor_type;location;lat;lon;timestamp;P1;durP1;ratioP1;P2;durP2;ratioP2
76409;SDS011;65238;42.662;23.280;2022-12-18T00:02:08;8.45;;;5.28;;
76409;SDS011;65238;42.662;23.280;2022-12-18T00:04:33;8.13;;;5.40;;
76409;SDS011;65238;42.662;23.280;2022-12-18T00:06:59;8.75;;;5.43;;
76409;SDS011;65238;42.662;23.280;2022-12-18T00:09:24;8.40;;;5.57;;
76409;SDS011;65238;42.662;23.280;2022-12-18T00:11:50;9.02;;;5.82;;
76409;SDS011;65238;42.662;23.280;2022-12-18T00:14:15;7.80;;;5.13;;
76409;SDS011;65238;42.662;23.280;2022-12-18T00:16:43;8.18;;;5.30;;
76409;SDS011;65238;42.662;23.280;2022-12-18T00:19:09;9.25;;;5.63;;
76409;SDS011;65238;42.662;23.280;2022-12-18T00:21:35;9.55;;;5.97;;
76409;SDS011;65238;42.662;23.280;2022-12-18T00:24:00;9.00;;;5.43;;
76409;SDS011;65238;42.662;23.280;2022-12-18T00:26:26;8.85;;;5.55;;
76409;SDS011;65238;42.662;23.280;2022-12-18T00:28:53;10.02;;;5.50;;
76409;SDS011;65238;42.662;23.280;2022-12-18T00:31:22;10.90;;;6.35;;
76409;SDS011;65238;42.662;23.280;2022-12-18T00:33:49;9.88;;;6.30;;
76409;SDS011;65238;42.662;23.280;2022-12-18T00:36:15;10.20;;;6.07;;
76409;SDS011;65238;42.662;23.280;2022-12-18T00:38:43;11.73;;;7.40;;
76409;SDS011;65238;42.662;23.280;2022-12-18T00:41:09;8.20;;;5.63;;
76409;SDS011;65238;42.662;23.280;2022-12-18T00:43:36;10.88;;;6.45;;
76409;SDS011;65238;42.662;23.280;2022-12-18T00:46:02;8.90;;;6.00;;
76409;SDS011;65238;42.662;23.280;2022-12-18T00:48:28;9.63;;;6.03;;
76409;SDS011;65238;42.662;23.280;2022-12-18T00:50:53;10.48;;;6.00;;
76409;SDS011;65238;42.662;23.280;2022-12-18T00:53:19;9.70;;;5.88;;
76409;SDS011;65238;42.662;23.280;2022-12-18T00:55:44;13.10;;;6.10;;
76409;SDS011;65238;42.662;23.280;2022-12-18T00:58:11;11.77;;;6.82;;
76409;SDS011;65238;42.662;23.280;2022-12-18T01:00:37;9.38;;;6.13;;
76409;SDS011;65238;42.662;23.280;2022-12-18T01:03:03;9.80;;;5.63;;
76409;SDS011;65238;42.662;23.280;2022-12-18T01:05:28;10.77;;;5.55;;
76409;SDS011;65238;42.662;23.280;2022-12-18T01:07:55;22.13;;;6.63;;
76409;SDS011;65238;42.662;23.280;2022-12-18T01:10:21;9.93;;;5.78;;
76409;SDS011;65238;42.662;23.280;2022-12-18T01:12:46;8.48;;;5.75;;
76409;SDS011;65238;42.662;23.280;2022-12-18T01:15:12;9.75;;;6.43;;
76409;SDS011;65238;42.662;23.280;2022-12-18T01:17:38;10.88;;;6.72;;
76409;SDS011;65238;42.662;23.280;2022-12-18T01:20:04;12.30;;;6.20;;
76409;SDS011;65238;42.662;23.280;2022-12-18T01:22:29;12.02;;;7.22;;
76409;SDS011;65238;42.662;23.280;2022-12-18T01:24:55;10.70;;;7.13;;
76409;SDS011;65238;42.662;23.280;2022-12-18T01:27:20;9.05;;;6.45;;
76409;SDS011;65238;42.662;23.280;2022-12-18T01:29:47;12.95;;;7.18;;
76409;SDS011;65238;42.662;23.280;2022-12-18T01:32:12;10.80;;;6.47;;
76409;SDS011;65238;42.662;23.280;2022-12-18T01:34:38;14.15;;;8.27;;
76409;SDS011;65238;42.662;23.280;2022-12-18T01:37:04;14.65;;;7.32;;
76409;SDS011;65238;42.662;23.280;2022-12-18T01:39:29;14.07;;;7.90;;
76409;SDS011;65238;42.662;23.280;2022-12-18T01:41:57;12.13;;;7.32;;
76409;SDS011;65238;42.662;23.280;2022-12-18T01:47:15;12.20;;;8.00;;
76409;SDS011;65238;42.662;23.280;2022-12-18T01:49:45;13.38;;;7.90;;
76409;SDS011;65238;42.662;23.280;2022-12-18T01:52:10;13.15;;;8.20;;
76409;SDS011;65238;42.662;23.280;2022-12-18T01:54:36;12.38;;;7.90;;
76409;SDS011;65238;42.662;23.280;2022-12-18T01:57:01;15.52;;;7.90;;
76409;SDS011;65238;42.662;23.280;2022-12-18T01:59:27;18.10;;;8.90;;
76409;SDS011;65238;42.662;23.280;2022-12-18T02:01:53;12.82;;;7.43;;
76409;SDS011;65238;42.662;23.280;2022-12-18T02:04:22;14.50;;;8.27;;
76409;SDS011;65238;42.662;23.280;2022-12-18T02:12:48;15.40;;;8.60;;
76409;SDS011;65238;42.662;23.280;2022-12-18T02:18:41;11.88;;;7.53;;
76409;SDS011;65238;42.662;23.280;2022-12-18T02:21:22;14.07;;;7.45;;
76409;SDS011;65238;42.662;23.280;2022-12-18T02:26:27;14.98;;;8.05;;
76409;SDS011;65238;42.662;23.280;2022-12-18T02:28:57;14.77;;;7.82;;
76409;SDS011;65238;42.662;23.280;2022-12-18T02:31:27;15.02;;;8.15;;
76409;SDS011;65238;42.662;23.280;2022-12-18T02:33:55;15.63;;;8.48;;
76409;SDS011;65238;42.662;23.280;2022-12-18T02:36:21;13.63;;;8.63;;
76409;SDS011;65238;42.662;23.280;2022-12-18T02:38:48;12.07;;;7.50;;
76409;SDS011;65238;42.662;23.280;2022-12-18T02:41:14;11.70;;;7.63;;
76409;SDS011;65238;42.662;23.280;2022-12-18T02:43:45;14.13;;;7.85;;
76409;SDS011;65238;42.662;23.280;2022-12-18T02:46:24;12.68;;;7.82;;
76409;SDS011;65238;42.662;23.280;2022-12-18T02:48:50;13.60;;;7.88;;
76409;SDS011;65238;42.662;23.280;2022-12-18T02:53:57;13.00;;;7.60;;
76409;SDS011;65238;42.662;23.280;2022-12-18T02:56:38;10.97;;;6.97;;
76409;SDS011;65238;42.662;23.280;2022-12-18T02:59:12;11.90;;;7.90;;
76409;SDS011;65238;42.662;23.280;2022-12-18T03:01:50;12.60;;;7.30;;
76409;SDS011;65238;42.662;23.280;2022-12-18T03:04:49;11.75;;;7.15;;
76409;SDS011;65238;42.662;23.280;2022-12-18T03:07:33;14.75;;;7.38;;
76409;SDS011;65238;42.662;23.280;2022-12-18T03:10:03;9.85;;;6.65;;
76409;SDS011;65238;42.662;23.280;2022-12-18T03:12:32;10.38;;;6.80;;
76409;SDS011;65238;42.662;23.280;2022-12-18T03:15:04;11.10;;;6.72;;
76409;SDS011;65238;42.662;23.280;2022-12-18T03:17:34;10.25;;;6.47;;
76409;SDS011;65238;42.662;23.280;2022-12-18T03:20:06;10.18;;;6.15;;
76409;SDS011;65238;42.662;23.280;2022-12-18T03:22:34;8.45;;;5.40;;
76409;SDS011;65238;42.662;23.280;2022-12-18T03:25:01;10.60;;;6.13;;
76409;SDS011;65238;42.662;23.280;2022-12-18T03:27:28;10.52;;;6.03;;
76409;SDS011;65238;42.662;23.280;2022-12-18T03:30:05;9.82;;;6.40;;
76409;SDS011;65238;42.662;23.280;2022-12-18T03:32:44;7.97;;;5.38;;
76409;SDS011;65238;42.662;23.280;2022-12-18T03:35:25;10.32;;;6.90;;
76409;SDS011;65238;42.662;23.280;2022-12-18T03:37:53;8.90;;;5.50;;
76409;SDS011;65238;42.662;23.280;2022-12-18T03:40:20;9.55;;;5.35;;
76409;SDS011;65238;42.662;23.280;2022-12-18T03:42:49;17.63;;;7.57;;
76409;SDS011;65238;42.662;23.280;2022-12-18T03:47:58;11.98;;;6.43;;
76409;SDS011;65238;42.662;23.280;2022-12-18T03:50:46;10.50;;;5.60;;
76409;SDS011;65238;42.662;23.280;2022-12-18T03:56:10;9.85;;;6.00;;
76409;SDS011;65238;42.662;23.280;2022-12-18T03:58:37;10.32;;;5.70;;
76409;SDS011;65238;42.662;23.280;2022-12-18T04:01:05;47.20;;;19.77;;
76409;SDS011;65238;42.662;23.280;2022-12-18T04:03:33;10.48;;;6.32;;
76409;SDS011;65238;42.662;23.280;2022-12-18T04:05:59;10.80;;;6.45;;
76409;SDS011;65238;42.662;23.280;2022-12-18T04:08:26;9.50;;;5.88;;
76409;SDS011;65238;42.662;23.280;2022-12-18T04:10:51;10.63;;;6.10;;
76409;SDS011;65238;42.662;23.280;2022-12-18T04:13:52;8.73;;;5.50;;
76409;SDS011;65238;42.662;23.280;2022-12-18T04:16:09;9.02;;;5.60;;
76409;SDS011;65238;42.662;23.280;2022-12-18T04:18:35;11.60;;;7.25;;
76409;SDS011;65238;42.662;23.280;2022-12-18T04:21:00;10.20;;;5.75;;
76409;SDS011;65238;42.662;23.280;2022-12-18T04:23:27;10.45;;;5.80;;
76409;SDS011;65238;42.662;23.280;2022-12-18T04:25:53;10.10;;;5.95;;
76409;SDS011;65238;42.662;23.280;2022-12-18T04:28:19;9.80;;;5.88;;
76409;SDS011;65238;42.662;23.280;2022-12-18T04:30:45;11.60;;;6.75;;
76409;SDS011;65238;42.662;23.280;2022-12-18T04:33:13;12.07;;;6.07;;
76409;SDS011;65238;42.662;23.280;2022-12-18T04:35:39;11.57;;;6.68;;
76409;SDS011;65238;42.662;23.280;2022-12-18T04:38:06;10.45;;;6.57;;
76409;SDS011;65238;42.662;23.280;2022-12-18T04:40:33;11.65;;;6.88;;
76409;SDS011;65238;42.662;23.280;2022-12-18T04:42:58;12.55;;;6.80;;
76409;SDS011;65238;42.662;23.280;2022-12-18T04:45:24;10.93;;;6.95;;
76409;SDS011;65238;42.662;23.280;2022-12-18T04:47:49;15.20;;;7.80;;
76409;SDS011;65238;42.662;23.280;2022-12-18T04:50:15;15.88;;;8.80;;
76409;SDS011;65238;42.662;23.280;2022-12-18T04:52:40;14.68;;;7.45;;
76409;SDS011;65238;42.662;23.280;2022-12-18T04:55:06;13.85;;;7.60;;
76409;SDS011;65238;42.662;23.280;2022-12-18T04:57:32;15.40;;;7.97;;
76409;SDS011;65238;42.662;23.280;2022-12-18T04:59:59;13.50;;;7.07;;
76409;SDS011;65238;42.662;23.280;2022-12-18T05:02:25;13.18;;;7.75;;
76409;SDS011;65238;42.662;23.280;2022-12-18T05:04:50;12.02;;;7.50;;
76409;SDS011;65238;42.662;23.280;2022-12-18T05:07:15;13.63;;;8.02;;
76409;SDS011;65238;42.662;23.280;2022-12-18T05:09:41;16.58;;;9.05;;
76409;SDS011;65238;42.662;23.280;2022-12-18T05:12:06;12.90;;;7.45;;
76409;SDS011;65238;42.662;23.280;2022-12-18T05:14:32;20.00;;;9.23;;
76409;SDS011;65238;42.662;23.280;2022-12-18T05:16:57;16.33;;;8.73;;
76409;SDS011;65238;42.662;23.280;2022-12-18T05:19:23;17.80;;;9.38;;
76409;SDS011;65238;42.662;23.280;2022-12-18T05:21:48;13.90;;;8.88;;
76409;SDS011;65238;42.662;23.280;2022-12-18T05:24:13;14.93;;;8.95;;
76409;SDS011;65238;42.662;23.280;2022-12-18T05:26:39;19.52;;;9.77;;
76409;SDS011;65238;42.662;23.280;2022-12-18T05:29:04;15.18;;;9.50;;
76409;SDS011;65238;42.662;23.280;2022-12-18T05:31:30;17.50;;;9.93;;
76409;SDS011;65238;42.662;23.280;2022-12-18T05:33:55;16.48;;;9.88;;
76409;SDS011;65238;42.662;23.280;2022-12-18T05:36:20;17.10;;;9.15;;
76409;SDS011;65238;42.662;23.280;2022-12-18T05:38:46;18.17;;;9.65;;
76409;SDS011;65238;42.662;23.280;2022-12-18T05:41:11;15.27;;;8.70;;
76409;SDS011;65238;42.662;23.280;2022-12-18T05:43:37;18.00;;;9.55;;
76409;SDS011;65238;42.662;23.280;2022-12-18T05:46:05;15.25;;;8.85;;
76409;SDS011;65238;42.662;23.280;2022-12-18T05:48:31;19.27;;;10.38;;
76409;SDS011;65238;42.662;23.280;2022-12-18T05:51:02;19.83;;;11.27;;
76409;SDS011;65238;42.662;23.280;2022-12-18T05:53:29;22.50;;;11.80;;
76409;SDS011;65238;42.662;23.280;2022-12-18T05:56:06;20.27;;;11.52;;
76409;SDS011;65238;42.662;23.280;2022-12-18T05:58:33;20.02;;;11.25;;
76409;SDS011;65238;42.662;23.280;2022-12-18T06:01:05;22.02;;;11.38;;
76409;SDS011;65238;42.662;23.280;2022-12-18T06:03:39;20.58;;;11.57;;
76409;SDS011;65238;42.662;23.280;2022-12-18T06:06:11;20.40;;;11.15;;
76409;SDS011;65238;42.662;23.280;2022-12-18T06:08:47;20.48;;;11.48;;
76409;SDS011;65238;42.662;23.280;2022-12-18T06:11:15;23.48;;;10.65;;
76409;SDS011;65238;42.662;23.280;2022-12-18T06:13:42;22.27;;;11.60;;
76409;SDS011;65238;42.662;23.280;2022-12-18T06:16:07;20.55;;;11.15;;
76409;SDS011;65238;42.662;23.280;2022-12-18T06:18:33;20.10;;;10.95;;
76409;SDS011;65238;42.662;23.280;2022-12-18T06:20:59;20.63;;;10.55;;
76409;SDS011;65238;42.662;23.280;2022-12-18T06:23:25;18.65;;;11.10;;
76409;SDS011;65238;42.662;23.280;2022-12-18T06:25:50;22.50;;;10.80;;
76409;SDS011;65238;42.662;23.280;2022-12-18T06:28:16;19.20;;;10.77;;
76409;SDS011;65238;42.662;23.280;2022-12-18T06:30:48;17.70;;;10.07;;
76409;SDS011;65238;42.662;23.280;2022-12-18T06:33:14;22.38;;;11.30;;
76409;SDS011;65238;42.662;23.280;2022-12-18T06:35:40;20.88;;;10.73;;
76409;SDS011;65238;42.662;23.280;2022-12-18T06:38:06;19.17;;;10.88;;
76409;SDS011;65238;42.662;23.280;2022-12-18T06:40:31;21.40;;;11.80;;
76409;SDS011;65238;42.662;23.280;2022-12-18T06:42:57;16.75;;;8.85;;
76409;SDS011;65238;42.662;23.280;2022-12-18T06:45:23;18.48;;;9.52;;
76409;SDS011;65238;42.662;23.280;2022-12-18T06:47:49;19.45;;;9.77;;
76409;SDS011;65238;42.662;23.280;2022-12-18T06:50:14;17.35;;;9.10;;
76409;SDS011;65238;42.662;23.280;2022-12-18T06:52:40;19.23;;;10.18;;
76409;SDS011;65238;42.662;23.280;2022-12-18T06:55:06;20.50;;;10.48;;
76409;SDS011;65238;42.662;23.280;2022-12-18T06:57:33;20.83;;;10.50;;
76409;SDS011;65238;42.662;23.280;2022-12-18T06:59:58;21.35;;;12.05;;
76409;SDS011;65238;42.662;23.280;2022-12-18T07:02:23;55.45;;;27.55;;
76409;SDS011;65238;42.662;23.280;2022-12-18T07:04:49;29.80;;;13.82;;
76409;SDS011;65238;42.662;23.280;2022-12-18T07:07:14;27.02;;;13.48;;
76409;SDS011;65238;42.662;23.280;2022-12-18T07:09:40;26.40;;;13.85;;
76409;SDS011;65238;42.662;23.280;2022-12-18T07:12:05;22.80;;;11.60;;
76409;SDS011;65238;42.662;23.280;2022-12-18T07:14:31;22.75;;;11.70;;
76409;SDS011;65238;42.662;23.280;2022-12-18T07:16:57;24.85;;;12.60;;
76409;SDS011;65238;42.662;23.280;2022-12-18T07:19:22;20.85;;;10.88;;
76409;SDS011;65238;42.662;23.280;2022-12-18T07:21:49;23.10;;;11.30;;
76409;SDS011;65238;42.662;23.280;2022-12-18T07:24:15;23.02;;;12.23;;
76409;SDS011;65238;42.662;23.280;2022-12-18T07:26:40;22.98;;;12.27;;
76409;SDS011;65238;42.662;23.280;2022-12-18T07:29:06;23.90;;;13.35;;
76409;SDS011;65238;42.662;23.280;2022-12-18T07:31:31;20.88;;;11.77;;
76409;SDS011;65238;42.662;23.280;2022-12-18T07:33:56;25.20;;;12.18;;
76409;SDS011;65238;42.662;23.280;2022-12-18T07:36:22;22.40;;;11.68;;
76409;SDS011;65238;42.662;23.280;2022-12-18T07:38:48;27.30;;;12.15;;
76409;SDS011;65238;42.662;23.280;2022-12-18T07:41:14;22.55;;;12.45;;
76409;SDS011;65238;42.662;23.280;2022-12-18T07:43:40;24.00;;;11.88;;
76409;SDS011;65238;42.662;23.280;2022-12-18T07:46:06;23.42;;;12.18;;
76409;SDS011;65238;42.662;23.280;2022-12-18T07:48:32;22.35;;;12.32;;
76409;SDS011;65238;42.662;23.280;2022-12-18T07:51:01;24.55;;;12.85;;
76409;SDS011;65238;42.662;23.280;2022-12-18T07:53:27;25.48;;;12.75;;
76409;SDS011;65238;42.662;23.280;2022-12-18T07:55:57;24.90;;;13.80;;
76409;SDS011;65238;42.662;23.280;2022-12-18T07:58:23;25.95;;;13.70;;
76409;SDS011;65238;42.662;23.280;2022-12-18T08:00:48;27.77;;;14.75;;
76409;SDS011;65238;42.662;23.280;2022-12-18T08:03:14;25.17;;;14.48;;
76409;SDS011;65238;42.662;23.280;2022-12-18T08:05:39;30.52;;;14.63;;
76409;SDS011;65238;42.662;23.280;2022-12-18T08:08:05;27.77;;;14.23;;
76409;SDS011;65238;42.662;23.280;2022-12-18T08:10:30;27.70;;;13.43;;
76409;SDS011;65238;42.662;23.280;2022-12-18T08:12:56;26.88;;;15.00;;
76409;SDS011;65238;42.662;23.280;2022-12-18T08:15:21;30.90;;;16.15;;
76409;SDS011;65238;42.662;23.280;2022-12-18T08:17:47;32.38;;;16.02;;
76409;SDS011;65238;42.662;23.280;2022-12-18T08:20:12;29.15;;;15.95;;
76409;SDS011;65238;42.662;23.280;2022-12-18T08:22:39;32.13;;;14.30;;
76409;SDS011;65238;42.662;23.280;2022-12-18T08:25:06;32.83;;;16.00;;
76409;SDS011;65238;42.662;23.280;2022-12-18T08:27:32;30.95;;;14.95;;
76409;SDS011;65238;42.662;23.280;2022-12-18T08:30:00;32.38;;;16.45;;
76409;SDS011;65238;42.662;23.280;2022-12-18T08:32:26;36.42;;;15.60;;
76409;SDS011;65238;42.662;23.280;2022-12-18T08:34:55;32.22;;;16.70;;
76409;SDS011;65238;42.662;23.280;2022-12-18T08:37:20;33.88;;;16.55;;
76409;SDS011;65238;42.662;23.280;2022-12-18T08:39:46;32.03;;;16.70;;
76409;SDS011;65238;42.662;23.280;2022-12-18T08:42:11;30.40;;;15.80;;
76409;SDS011;65238;42.662;23.280;2022-12-18T08:44:55;35.97;;;17.23;;
76409;SDS011;65238;42.662;23.280;2022-12-18T08:47:21;32.22;;;17.20;;
76409;SDS011;65238;42.662;23.280;2022-12-18T08:49:46;32.65;;;17.27;;
76409;SDS011;65238;42.662;23.280;2022-12-18T08:52:12;34.92;;;17.55;;
76409;SDS011;65238;42.662;23.280;2022-12-18T08:54:37;39.97;;;18.75;;
76409;SDS011;65238;42.662;23.280;2022-12-18T08:57:02;31.65;;;16.25;;
76409;SDS011;65238;42.662;23.280;2022-12-18T08:59:28;37.08;;;17.52;;
76409;SDS011;65238;42.662;23.280;2022-12-18T09:01:53;45.33;;;18.45;;
76409;SDS011;65238;42.662;23.280;2022-12-18T09:04:20;34.75;;;17.65;;
76409;SDS011;65238;42.662;23.280;2022-12-18T09:06:45;33.33;;;16.98;;
76409;SDS011;65238;42.662;23.280;2022-12-18T09:09:11;35.50;;;17.63;;
76409;SDS011;65238;42.662;23.280;2022-12-18T09:11:36;36.30;;;18.00;;
76409;SDS011;65238;42.662;23.280;2022-12-18T09:14:02;37.65;;;18.13;;
76409;SDS011;65238;42.662;23.280;2022-12-18T09:16:28;34.63;;;17.80;;
76409;SDS011;65238;42.662;23.280;2022-12-18T09:18:57;38.30;;;18.73;;
76409;SDS011;65238;42.662;23.280;2022-12-18T09:21:27;33.65;;;17.17;;
76409;SDS011;65238;42.662;23.280;2022-12-18T09:23:54;37.53;;;17.67;;
76409;SDS011;65238;42.662;23.280;2022-12-18T09:26:23;36.85;;;17.25;;
76409;SDS011;65238;42.662;23.280;2022-12-18T09:28:49;36.45;;;16.55;;
76409;SDS011;65238;42.662;23.280;2022-12-18T09:31:16;37.38;;;17.58;;
76409;SDS011;65238;42.662;23.280;2022-12-18T09:33:42;37.08;;;19.20;;
76409;SDS011;65238;42.662;23.280;2022-12-18T09:36:10;36.28;;;17.92;;
76409;SDS011;65238;42.662;23.280;2022-12-18T09:38:37;33.38;;;17.10;;
76409;SDS011;65238;42.662;23.280;2022-12-18T09:43:45;35.37;;;17.70;;
76409;SDS011;65238;42.662;23.280;2022-12-18T09:46:47;36.80;;;17.38;;
76409;SDS011;65238;42.662;23.280;2022-12-18T09:49:11;30.73;;;15.60;;
76409;SDS011;65238;42.662;23.280;2022-12-18T09:51:41;34.95;;;17.38;;
76409;SDS011;65238;42.662;23.280;2022-12-18T09:54:18;33.28;;;17.65;;
76409;SDS011;65238;42.662;23.280;2022-12-18T09:56:46;34.20;;;17.63;;
76409;SDS011;65238;42.662;23.280;2022-12-18T09:59:24;34.17;;;17.38;;
76409;SDS011;65238;42.662;23.280;2022-12-18T10:01:52;32.88;;;15.70;;
76409;SDS011;65238;42.662;23.280;2022-12-18T10:04:17;30.77;;;16.05;;
76409;SDS011;65238;42.662;23.280;2022-12-18T10:09:20;32.10;;;15.60;;
76409;SDS011;65238;42.662;23.280;2022-12-18T10:11:55;29.13;;;15.60;;
76409;SDS011;65238;42.662;23.280;2022-12-18T10:17:14;27.30;;;13.75;;
76409;SDS011;65238;42.662;23.280;2022-12-18T10:19:52;28.20;;;14.98;;
76409;SDS011;65238;42.662;23.280;2022-12-18T10:24:59;32.53;;;15.23;;
76409;SDS011;65238;42.662;23.280;2022-12-18T10:27:35;30.75;;;14.40;;
76409;SDS011;65238;42.662;23.280;2022-12-18T10:30:01;26.23;;;13.93;;
76409;SDS011;65238;42.662;23.280;2022-12-18T10:32:37;30.50;;;14.43;;
76409;SDS011;65238;42.662;23.280;2022-12-18T10:35:03;28.05;;;14.25;;
76409;SDS011;65238;42.662;23.280;2022-12-18T10:37:29;25.75;;;14.27;;
76409;SDS011;65238;42.662;23.280;2022-12-18T10:40:14;27.05;;;13.63;;
76409;SDS011;65238;42.662;23.280;2022-12-18T10:42:40;28.30;;;14.45;;
76409;SDS011;65238;42.662;23.280;2022-12-18T10:45:14;24.88;;;12.93;;
76409;SDS011;65238;42.662;23.280;2022-12-18T10:47:41;27.75;;;14.07;;
76409;SDS011;65238;42.662;23.280;2022-12-18T10:50:17;28.02;;;13.98;;
76409;SDS011;65238;42.662;23.280;2022-12-18T10:52:44;28.95;;;14.27;;
76409;SDS011;65238;42.662;23.280;2022-12-18T10:55:21;27.98;;;13.98;;
76409;SDS011;65238;42.662;23.280;2022-12-18T10:57:47;29.95;;;14.70;;
76409;SDS011;65238;42.662;23.280;2022-12-18T11:02:44;30.30;;;14.45;;
76409;SDS011;65238;42.662;23.280;2022-12-18T11:07:51;27.77;;;12.80;;
76409;SDS011;65238;42.662;23.280;2022-12-18T11:10:20;26.45;;;13.75;;
76409;SDS011;65238;42.662;23.280;2022-12-18T11:12:47;23.13;;;12.00;;
76409;SDS011;65238;42.662;23.280;2022-12-18T11:18:22;22.83;;;11.93;;
76409;SDS011;65238;42.662;23.280;2022-12-18T11:20:53;25.48;;;12.52;;
76409;SDS011;65238;42.662;23.280;2022-12-18T11:23:30;24.90;;;11.98;;
76409;SDS011;65238;42.662;23.280;2022-12-18T11:25:58;24.15;;;12.48;;
76409;SDS011;65238;42.662;23.280;2022-12-18T11:28:28;26.05;;;11.75;;
76409;SDS011;65238;42.662;23.280;2022-12-18T11:36:14;23.83;;;12.18;;
76409;SDS011;65238;42.662;23.280;2022-12-18T11:38:41;23.55;;;12.32;;
76409;SDS011;65238;42.662;23.280;2022-12-18T11:43:54;23.42;;;11.18;;
76409;SDS011;65238;42.662;23.280;2022-12-18T11:46:24;24.77;;;11.93;;
76409;SDS011;65238;42.662;23.280;2022-12-18T11:48:55;23.48;;;11.35;;
76409;SDS011;65238;42.662;23.280;2022-12-18T11:51:26;25.27;;;12.80;;
76409;SDS011;65238;42.662;23.280;2022-12-18T11:53:53;25.95;;;12.52;;
76409;SDS011;65238;42.662;23.280;2022-12-18T11:56:39;24.85;;;12.30;;
76409;SDS011;65238;42.662;23.280;2022-12-18T12:15:32;24.42;;;12.10;;
76409;SDS011;65238;42.662;23.280;2022-12-18T12:18:22;25.38;;;12.75;;
76409;SDS011;65238;42.662;23.280;2022-12-18T12:21:03;24.30;;;13.30;;
76409;SDS011;65238;42.662;23.280;2022-12-18T12:29:06;24.60;;;11.57;;
76409;SDS011;65238;42.662;23.280;2022-12-18T12:39:56;26.63;;;13.63;;
76409;SDS011;65238;42.662;23.280;2022-12-18T12:42:32;29.67;;;14.13;;
76409;SDS011;65238;42.662;23.280;2022-12-18T12:53:47;28.27;;;14.93;;
76409;SDS011;65238;42.662;23.280;2022-12-18T12:56:14;31.48;;;14.88;;
76409;SDS011;65238;42.662;23.280;2022-12-18T13:04:06;33.53;;;15.55;;
76409;SDS011;65238;42.662;23.280;2022-12-18T13:06:40;28.58;;;13.73;;
76409;SDS011;65238;42.662;23.280;2022-12-18T13:09:08;33.08;;;15.65;;
76409;SDS011;65238;42.662;23.280;2022-12-18T13:11:43;31.67;;;14.93;;
76409;SDS011;65238;42.662;23.280;2022-12-18T13:14:30;31.65;;;14.77;;
76409;SDS011;65238;42.662;23.280;2022-12-18T13:17:15;29.67;;;15.18;;
76409;SDS011;65238;42.662;23.280;2022-12-18T13:22:45;33.17;;;15.15;;
76409;SDS011;65238;42.662;23.280;2022-12-18T13:25:28;31.27;;;15.18;;
76409;SDS011;65238;42.662;23.280;2022-12-18T13:28:13;30.63;;;14.73;;
76409;SDS011;65238;42.662;23.280;2022-12-18T13:38:32;28.88;;;15.25;;
76409;SDS011;65238;42.662;23.280;2022-12-18T13:40:59;27.50;;;14.25;;
76409;SDS011;65238;42.662;23.280;2022-12-18T13:51:44;28.15;;;14.07;;
76409;SDS011;65238;42.662;23.280;2022-12-18T13:54:19;27.77;;;13.48;;
76409;SDS011;65238;42.662;23.280;2022-12-18T13:56:48;31.70;;;16.70;;
76409;SDS011;65238;42.662;23.280;2022-12-18T13:59:22;29.70;;;15.18;;
76409;SDS011;65238;42.662;23.280;2022-12-18T14:01:59;27.77;;;13.75;;
76409;SDS011;65238;42.662;23.280;2022-12-18T14:04:27;25.85;;;13.93;;
76409;SDS011;65238;42.662;23.280;2022-12-18T14:07:07;29.63;;;14.73;;
76409;SDS011;65238;42.662;23.280;2022-12-18T14:09:57;31.35;;;16.27;;
76409;SDS011;65238;42.662;23.280;2022-12-18T14:12:26;31.17;;;14.88;;
76409;SDS011;65238;42.662;23.280;2022-12-18T14:17:58;26.38;;;15.13;;
76409;SDS011;65238;42.662;23.280;2022-12-18T14:20:25;28.17;;;14.40;;
76409;SDS011;65238;42.662;23.280;2022-12-18T14:22:52;28.27;;;14.50;;
76409;SDS011;65238;42.662;23.280;2022-12-18T14:27:47;29.67;;;14.13;;
76409;SDS011;65238;42.662;23.280;2022-12-18T14:30:38;25.95;;;13.90;;
76409;SDS011;65238;42.662;23.280;2022-12-18T14:35:33;25.70;;;13.10;;
76409;SDS011;65238;42.662;23.280;2022-12-18T14:38:20;32.70;;;13.73;;
76409;SDS011;65238;42.662;23.280;2022-12-18T14:40:52;26.55;;;14.25;;
76409;SDS011;65238;42.662;23.280;2022-12-18T14:43:19;29.05;;;13.90;;
76409;SDS011;65238;42.662;23.280;2022-12-18T14:45:45;31.13;;;15.48;;
76409;SDS011;65238;42.662;23.280;2022-12-18T14:50:36;32.33;;;15.20;;
76409;SDS011;65238;42.662;23.280;2022-12-18T14:53:02;32.90;;;15.38;;
76409;SDS011;65238;42.662;23.280;2022-12-18T14:55:28;31.20;;;15.70;;
76409;SDS011;65238;42.662;23.280;2022-12-18T14:57:54;27.75;;;14.23;;
76409;SDS011;65238;42.662;23.280;2022-12-18T15:00:21;29.83;;;14.45;;
76409;SDS011;65238;42.662;23.280;2022-12-18T15:02:52;30.48;;;15.32;;
76409;SDS011;65238;42.662;23.280;2022-12-18T15:05:28;31.25;;;14.13;;
76409;SDS011;65238;42.662;23.280;2022-12-18T15:07:56;26.95;;;12.75;;
76409;SDS011;65238;42.662;23.280;2022-12-18T15:10:24;25.30;;;13.00;;
76409;SDS011;65238;42.662;23.280;2022-12-18T15:17:58;25.92;;;13.88;;
76409;SDS011;65238;42.662;23.280;2022-12-18T15:20:24;29.90;;;13.63;;
76409;SDS011;65238;42.662;23.280;2022-12-18T15:22:49;27.58;;;12.60;;
76409;SDS011;65238;42.662;23.280;2022-12-18T15:25:27;22.92;;;11.52;;
76409;SDS011;65238;42.662;23.280;2022-12-18T15:27:57;20.08;;;10.70;;
76409;SDS011;65238;42.662;23.280;2022-12-18T15:30:22;23.42;;;11.27;;
76409;SDS011;65238;42.662;23.280;2022-12-18T15:32:50;19.92;;;11.32;;
76409;SDS011;65238;42.662;23.280;2022-12-18T15:37:46;21.73;;;10.93;;
76409;SDS011;65238;42.662;23.280;2022-12-18T15:40:15;28.27;;;12.88;;
76409;SDS011;65238;42.662;23.280;2022-12-18T15:42:45;22.02;;;11.43;;
76409;SDS011;65238;42.662;23.280;2022-12-18T15:45:30;24.45;;;12.88;;
76409;SDS011;65238;42.662;23.280;2022-12-18T15:47:55;24.92;;;13.05;;
76409;SDS011;65238;42.662;23.280;2022-12-18T15:50:21;29.60;;;14.57;;
76409;SDS011;65238;42.662;23.280;2022-12-18T15:52:47;32.28;;;15.70;;
76409;SDS011;65238;42.662;23.280;2022-12-18T15:55:19;26.80;;;13.82;;
76409;SDS011;65238;42.662;23.280;2022-12-18T15:58:05;27.27;;;13.52;;
76409;SDS011;65238;42.662;23.280;2022-12-18T16:00:31;27.42;;;13.38;;
76409;SDS011;65238;42.662;23.280;2022-12-18T16:02:57;27.27;;;13.38;;
76409;SDS011;65238;42.662;23.280;2022-12-18T16:05:23;29.15;;;14.82;;
76409;SDS011;65238;42.662;23.280;2022-12-18T16:07:49;28.40;;;14.52;;
76409;SDS011;65238;42.662;23.280;2022-12-18T16:10:14;30.02;;;13.38;;
76409;SDS011;65238;42.662;23.280;2022-12-18T16:12:40;32.97;;;14.85;;
76409;SDS011;65238;42.662;23.280;2022-12-18T16:15:06;28.70;;;14.07;;
76409;SDS011;65238;42.662;23.280;2022-12-18T16:17:32;26.70;;;13.88;;
76409;SDS011;65238;42.662;23.280;2022-12-18T16:19:58;30.17;;;14.68;;
76409;SDS011;65238;42.662;23.280;2022-12-18T16:22:25;24.30;;;12.10;;
76409;SDS011;65238;42.662;23.280;2022-12-18T16:24:53;27.77;;;12.82;;
76409;SDS011;65238;42.662;23.280;2022-12-18T16:27:19;23.48;;;12.68;;
76409;SDS011;65238;42.662;23.280;2022-12-18T16:29:45;24.48;;;12.10;;
76409;SDS011;65238;42.662;23.280;2022-12-18T16:32:15;26.00;;;12.70;;
76409;SDS011;65238;42.662;23.280;2022-12-18T16:34:42;25.80;;;13.02;;
76409;SDS011;65238;42.662;23.280;2022-12-18T16:37:09;24.95;;;12.90;;